Airfield :
LOGIN :

Register | Disclaimer

   EN    FR    IT 

 










Legend :    VFR   Marginal VFR   IFR   Intensive IFR   Very Intensive IFR
Visi :
Ceiling :
>= 8 km
>= 3000ft
5 to 8 km
1000 to 3000 ft
1500m to 5 km
500 to 1000 ft
800 to 1500m
200 to 500 ft
< 800m
< 200 ft
Symbols :   Thunderstorms  Fog  Heavy snow  Heavy precipitations  Wind > 20 kt
SIGMETs :     Misc.  Thunderstorms  Icing  Turbulence  Mountain Waves  Volcanic Ashes






- Airport Elevation : 348 ft
- IATA code : LDV


LFRJ - Landivisiau

CURRENT METAR :
  • 280600Z AUTO 26016G28KT 9999 SCT016/// SCT022/// BKN033/// ///TCU 11/09 Q1006 TEMPO 4000 SHRA SCT010CB SCT015TCU

EXPIRED METARs :
  • 280530Z AUTO 23014KT 7000 RA FEW018/// BKN058/// BKN110/// ///CB 11/09 Q1007 TEMPO 24015G27KT 4000 SHRA
  • 280500Z AUTO 24015KT CAVOK 11/08 Q1007
  • 280430Z AUTO 24016KT 9999 FEW028 BKN066 BKN094 11/08 Q1006
  • 280400Z AUTO 23014KT 9999 FEW021/// BKN026/// BKN035/// ///TCU 12/09 Q1006
  • 280330Z AUTO 24014KT 9999 FEW027/// SCT034/// BKN056/// ///TCU 11/08 Q1006

TAF TAF LFRJ
Valid from the 28 at 06:00 until the 28 at 15:00 UTC


280500Z 2806/2815 23015KT 9999 SCT025 SCT060
TEMPO 2806/2815 24015G27KT 4000 SHRA SCT010CB SCT015TCU



MET'MAP, your aeronautical weather chart ! - Copyright ORBIFLY December 2007 - Disclaimer

ORBIFLY MET'MAP TEAM :

Programming & Development : Alexandra Zaïnal
Concept & original design : Baudouin d'Aumeries
Assistance for programming : Marc-Olivier Méhu
Technical & hardware support : Manuel Goepfert

Contact : metmap@orbifly.com




SOURCES & CREDITS :

   NOAA